sensor_id;sensor_type;location;lat;lon;timestamp;P1;durP1;ratioP1;P2;durP2;ratioP2
11100;SDS011;5604;50.722;7.078;2023-03-24T00:02:06;1.90;;;1.40;;
11100;SDS011;5604;50.722;7.078;2023-03-24T00:04:35;3.87;;;1.87;;
11100;SDS011;5604;50.722;7.078;2023-03-24T00:07:10;2.20;;;1.70;;
11100;SDS011;5604;50.722;7.078;2023-03-24T00:09:40;1.43;;;1.33;;
11100;SDS011;5604;50.722;7.078;2023-03-24T00:12:13;1.50;;;1.40;;
11100;SDS011;5604;50.722;7.078;2023-03-24T00:14:44;1.90;;;1.70;;
11100;SDS011;5604;50.722;7.078;2023-03-24T00:17:12;3.80;;;1.80;;
11100;SDS011;5604;50.722;7.078;2023-03-24T00:19:43;1.80;;;1.70;;
11100;SDS011;5604;50.722;7.078;2023-03-24T00:22:11;2.47;;;1.73;;
11100;SDS011;5604;50.722;7.078;2023-03-24T00:24:46;3.13;;;1.60;;
11100;SDS011;5604;50.722;7.078;2023-03-24T00:27:16;1.67;;;1.57;;
11100;SDS011;5604;50.722;7.078;2023-03-24T00:29:44;2.47;;;1.80;;
11100;SDS011;5604;50.722;7.078;2023-03-24T00:32:13;1.57;;;1.40;;
11100;SDS011;5604;50.722;7.078;2023-03-24T00:34:41;2.00;;;1.70;;
11100;SDS011;5604;50.722;7.078;2023-03-24T00:37:09;2.07;;;1.87;;
11100;SDS011;5604;50.722;7.078;2023-03-24T00:39:37;2.70;;;1.80;;
11100;SDS011;5604;50.722;7.078;2023-03-24T00:42:08;2.30;;;1.77;;
11100;SDS011;5604;50.722;7.078;2023-03-24T00:44:38;2.00;;;1.80;;
11100;SDS011;5604;50.722;7.078;2023-03-24T00:47:06;2.17;;;1.93;;
11100;SDS011;5604;50.722;7.078;2023-03-24T00:49:35;1.93;;;1.80;;
11100;SDS011;5604;50.722;7.078;2023-03-24T00:52:11;2.03;;;1.50;;
11100;SDS011;5604;50.722;7.078;2023-03-24T00:54:41;2.00;;;1.87;;
11100;SDS011;5604;50.722;7.078;2023-03-24T00:57:11;2.60;;;1.80;;
11100;SDS011;5604;50.722;7.078;2023-03-24T00:59:42;3.60;;;1.93;;
11100;SDS011;5604;50.722;7.078;2023-03-24T01:02:14;1.90;;;1.80;;
11100;SDS011;5604;50.722;7.078;2023-03-24T01:04:44;1.97;;;1.73;;
11100;SDS011;5604;50.722;7.078;2023-03-24T01:07:13;2.40;;;1.70;;
11100;SDS011;5604;50.722;7.078;2023-03-24T01:09:44;2.50;;;2.10;;
11100;SDS011;5604;50.722;7.078;2023-03-24T01:12:23;2.07;;;1.80;;
11100;SDS011;5604;50.722;7.078;2023-03-24T01:14:52;2.20;;;1.80;;
11100;SDS011;5604;50.722;7.078;2023-03-24T01:17:24;3.03;;;1.90;;
11100;SDS011;5604;50.722;7.078;2023-03-24T01:19:52;2.57;;;1.87;;
11100;SDS011;5604;50.722;7.078;2023-03-24T01:22:20;2.77;;;1.80;;
11100;SDS011;5604;50.722;7.078;2023-03-24T01:24:50;1.67;;;1.57;;
11100;SDS011;5604;50.722;7.078;2023-03-24T01:27:18;3.30;;;2.00;;
11100;SDS011;5604;50.722;7.078;2023-03-24T01:29:47;3.40;;;1.77;;
11100;SDS011;5604;50.722;7.078;2023-03-24T01:32:17;2.50;;;2.23;;
11100;SDS011;5604;50.722;7.078;2023-03-24T01:34:58;2.87;;;2.00;;
11100;SDS011;5604;50.722;7.078;2023-03-24T01:37:27;2.37;;;2.17;;
11100;SDS011;5604;50.722;7.078;2023-03-24T01:39:56;2.83;;;1.67;;
11100;SDS011;5604;50.722;7.078;2023-03-24T01:42:25;3.10;;;1.93;;
11100;SDS011;5604;50.722;7.078;2023-03-24T01:44:56;3.03;;;1.90;;
11100;SDS011;5604;50.722;7.078;2023-03-24T01:47:28;2.10;;;2.00;;
11100;SDS011;5604;50.722;7.078;2023-03-24T01:49:59;2.63;;;2.10;;
11100;SDS011;5604;50.722;7.078;2023-03-24T01:52:29;4.07;;;2.13;;
11100;SDS011;5604;50.722;7.078;2023-03-24T01:54:59;3.87;;;2.20;;
11100;SDS011;5604;50.722;7.078;2023-03-24T01:57:29;2.70;;;1.90;;
11100;SDS011;5604;50.722;7.078;2023-03-24T01:59:59;2.23;;;2.03;;
11100;SDS011;5604;50.722;7.078;2023-03-24T02:02:44;3.87;;;2.00;;
11100;SDS011;5604;50.722;7.078;2023-03-24T02:05:27;2.27;;;1.90;;
11100;SDS011;5604;50.722;7.078;2023-03-24T02:07:57;3.33;;;2.00;;
11100;SDS011;5604;50.722;7.078;2023-03-24T02:10:31;3.30;;;2.30;;
11100;SDS011;5604;50.722;7.078;2023-03-24T02:13:01;2.83;;;2.50;;
11100;SDS011;5604;50.722;7.078;2023-03-24T02:15:30;3.00;;;2.00;;
11100;SDS011;5604;50.722;7.078;2023-03-24T02:18:03;3.33;;;2.27;;
11100;SDS011;5604;50.722;7.078;2023-03-24T02:20:47;2.63;;;2.20;;
11100;SDS011;5604;50.722;7.078;2023-03-24T02:23:34;2.40;;;2.13;;
11100;SDS011;5604;50.722;7.078;2023-03-24T02:35:29;2.93;;;2.27;;
11100;SDS011;5604;50.722;7.078;2023-03-24T02:38:13;3.13;;;2.50;;
11100;SDS011;5604;50.722;7.078;2023-03-24T02:40:49;2.97;;;2.33;;
11100;SDS011;5604;50.722;7.078;2023-03-24T02:43:24;3.00;;;2.50;;
11100;SDS011;5604;50.722;7.078;2023-03-24T02:46:00;2.50;;;2.27;;
11100;SDS011;5604;50.722;7.078;2023-03-24T02:48:43;2.60;;;2.37;;
11100;SDS011;5604;50.722;7.078;2023-03-24T02:51:20;3.23;;;2.40;;
11100;SDS011;5604;50.722;7.078;2023-03-24T02:53:53;3.73;;;2.70;;
11100;SDS011;5604;50.722;7.078;2023-03-24T02:56:32;2.97;;;2.53;;
11100;SDS011;5604;50.722;7.078;2023-03-24T02:59:17;3.70;;;2.17;;
11100;SDS011;5604;50.722;7.078;2023-03-24T03:01:51;3.10;;;2.80;;
11100;SDS011;5604;50.722;7.078;2023-03-24T03:04:37;3.23;;;2.87;;
11100;SDS011;5604;50.722;7.078;2023-03-24T03:07:12;3.70;;;2.80;;
11100;SDS011;5604;50.722;7.078;2023-03-24T03:09:43;2.80;;;2.60;;
11100;SDS011;5604;50.722;7.078;2023-03-24T03:12:15;3.23;;;2.90;;
11100;SDS011;5604;50.722;7.078;2023-03-24T03:14:46;4.50;;;2.60;;
11100;SDS011;5604;50.722;7.078;2023-03-24T03:17:17;3.10;;;2.63;;
11100;SDS011;5604;50.722;7.078;2023-03-24T03:19:47;4.97;;;2.73;;
11100;SDS011;5604;50.722;7.078;2023-03-24T03:22:20;3.73;;;2.80;;
11100;SDS011;5604;50.722;7.078;2023-03-24T03:24:51;3.43;;;2.90;;
11100;SDS011;5604;50.722;7.078;2023-03-24T03:27:23;2.60;;;2.40;;
11100;SDS011;5604;50.722;7.078;2023-03-24T03:29:54;3.53;;;3.03;;
11100;SDS011;5604;50.722;7.078;2023-03-24T03:32:28;3.03;;;2.70;;
11100;SDS011;5604;50.722;7.078;2023-03-24T03:35:00;2.63;;;2.43;;
11100;SDS011;5604;50.722;7.078;2023-03-24T03:37:35;4.60;;;2.70;;
11100;SDS011;5604;50.722;7.078;2023-03-24T03:40:13;4.20;;;2.60;;
11100;SDS011;5604;50.722;7.078;2023-03-24T03:42:49;2.80;;;2.47;;
11100;SDS011;5604;50.722;7.078;2023-03-24T03:45:18;4.27;;;2.97;;
11100;SDS011;5604;50.722;7.078;2023-03-24T03:47:46;3.47;;;3.17;;
11100;SDS011;5604;50.722;7.078;2023-03-24T03:50:15;3.23;;;2.73;;
11100;SDS011;5604;50.722;7.078;2023-03-24T03:52:43;2.90;;;2.60;;
11100;SDS011;5604;50.722;7.078;2023-03-24T03:55:11;3.10;;;2.80;;
11100;SDS011;5604;50.722;7.078;2023-03-24T03:57:41;2.87;;;2.67;;
11100;SDS011;5604;50.722;7.078;2023-03-24T04:03:11;3.27;;;2.83;;
11100;SDS011;5604;50.722;7.078;2023-03-24T04:05:50;3.27;;;2.73;;
11100;SDS011;5604;50.722;7.078;2023-03-24T04:08:26;3.30;;;2.43;;
11100;SDS011;5604;50.722;7.078;2023-03-24T04:11:35;3.70;;;2.60;;
11100;SDS011;5604;50.722;7.078;2023-03-24T04:17:41;2.30;;;2.10;;
11100;SDS011;5604;50.722;7.078;2023-03-24T04:20:28;2.60;;;2.37;;
11100;SDS011;5604;50.722;7.078;2023-03-24T04:23:00;2.37;;;2.17;;
11100;SDS011;5604;50.722;7.078;2023-03-24T04:25:38;2.27;;;2.07;;
11100;SDS011;5604;50.722;7.078;2023-03-24T04:28:14;2.20;;;2.00;;
11100;SDS011;5604;50.722;7.078;2023-03-24T04:30:46;2.30;;;2.10;;
11100;SDS011;5604;50.722;7.078;2023-03-24T04:33:22;2.50;;;2.30;;
11100;SDS011;5604;50.722;7.078;2023-03-24T04:35:56;2.03;;;1.90;;
11100;SDS011;5604;50.722;7.078;2023-03-24T04:38:39;2.10;;;1.90;;
11100;SDS011;5604;50.722;7.078;2023-03-24T04:41:15;2.30;;;2.10;;
11100;SDS011;5604;50.722;7.078;2023-03-24T04:43:55;2.27;;;2.07;;
11100;SDS011;5604;50.722;7.078;2023-03-24T04:46:24;2.10;;;1.90;;
11100;SDS011;5604;50.722;7.078;2023-03-24T04:48:59;2.10;;;1.90;;
11100;SDS011;5604;50.722;7.078;2023-03-24T04:51:31;1.80;;;1.70;;
11100;SDS011;5604;50.722;7.078;2023-03-24T04:54:03;1.70;;;1.60;;
11100;SDS011;5604;50.722;7.078;2023-03-24T04:56:37;2.13;;;1.70;;
11100;SDS011;5604;50.722;7.078;2023-03-24T04:59:25;2.27;;;2.03;;
11100;SDS011;5604;50.722;7.078;2023-03-24T05:01:54;1.80;;;1.70;;
11100;SDS011;5604;50.722;7.078;2023-03-24T05:05:02;1.60;;;1.50;;
11100;SDS011;5604;50.722;7.078;2023-03-24T05:07:46;2.00;;;1.40;;
11100;SDS011;5604;50.722;7.078;2023-03-24T05:10:17;1.90;;;1.80;;
11100;SDS011;5604;50.722;7.078;2023-03-24T05:12:53;1.90;;;1.80;;
11100;SDS011;5604;50.722;7.078;2023-03-24T05:15:24;2.70;;;1.83;;
11100;SDS011;5604;50.722;7.078;2023-03-24T05:18:02;1.83;;;1.60;;
11100;SDS011;5604;50.722;7.078;2023-03-24T05:20:32;2.67;;;1.80;;
11100;SDS011;5604;50.722;7.078;2023-03-24T05:23:10;1.50;;;1.40;;
11100;SDS011;5604;50.722;7.078;2023-03-24T05:25:40;2.20;;;2.00;;
11100;SDS011;5604;50.722;7.078;2023-03-24T05:28:09;1.63;;;1.50;;
11100;SDS011;5604;50.722;7.078;2023-03-24T05:30:37;3.27;;;1.70;;
11100;SDS011;5604;50.722;7.078;2023-03-24T05:33:17;1.30;;;1.20;;
11100;SDS011;5604;50.722;7.078;2023-03-24T05:35:47;2.10;;;1.73;;
11100;SDS011;5604;50.722;7.078;2023-03-24T05:38:16;2.33;;;1.70;;
11100;SDS011;5604;50.722;7.078;2023-03-24T05:40:48;1.67;;;1.20;;
11100;SDS011;5604;50.722;7.078;2023-03-24T05:43:17;1.87;;;1.40;;
11100;SDS011;5604;50.722;7.078;2023-03-24T05:45:55;2.23;;;1.40;;
11100;SDS011;5604;50.722;7.078;2023-03-24T05:48:32;3.77;;;1.27;;
11100;SDS011;5604;50.722;7.078;2023-03-24T05:51:20;1.67;;;1.30;;
11100;SDS011;5604;50.722;7.078;2023-03-24T05:53:58;1.30;;;1.20;;
11100;SDS011;5604;50.722;7.078;2023-03-24T05:56:34;1.27;;;1.17;;
11100;SDS011;5604;50.722;7.078;2023-03-24T05:59:22;1.87;;;1.30;;
11100;SDS011;5604;50.722;7.078;2023-03-24T06:02:07;3.23;;;1.47;;
11100;SDS011;5604;50.722;7.078;2023-03-24T06:05:02;2.40;;;1.43;;
11100;SDS011;5604;50.722;7.078;2023-03-24T06:07:31;1.13;;;1.03;;
11100;SDS011;5604;50.722;7.078;2023-03-24T06:09:59;2.53;;;1.20;;
11100;SDS011;5604;50.722;7.078;2023-03-24T06:12:37;1.70;;;1.37;;
11100;SDS011;5604;50.722;7.078;2023-03-24T06:15:06;3.43;;;1.47;;
11100;SDS011;5604;50.722;7.078;2023-03-24T06:17:35;3.80;;;1.20;;
11100;SDS011;5604;50.722;7.078;2023-03-24T06:20:11;1.70;;;1.33;;
11100;SDS011;5604;50.722;7.078;2023-03-24T06:22:43;4.27;;;1.50;;
11100;SDS011;5604;50.722;7.078;2023-03-24T06:25:20;2.03;;;1.50;;
11100;SDS011;5604;50.722;7.078;2023-03-24T06:28:09;2.33;;;1.30;;
11100;SDS011;5604;50.722;7.078;2023-03-24T06:30:38;2.57;;;1.40;;
11100;SDS011;5604;50.722;7.078;2023-03-24T06:33:06;3.53;;;1.40;;
11100;SDS011;5604;50.722;7.078;2023-03-24T06:35:35;4.20;;;1.57;;
11100;SDS011;5604;50.722;7.078;2023-03-24T06:38:08;2.30;;;1.63;;
11100;SDS011;5604;50.722;7.078;2023-03-24T06:40:41;3.00;;;1.63;;
11100;SDS011;5604;50.722;7.078;2023-03-24T06:43:09;3.53;;;1.70;;
11100;SDS011;5604;50.722;7.078;2023-03-24T06:45:40;2.00;;;1.50;;
11100;SDS011;5604;50.722;7.078;2023-03-24T06:48:13;4.90;;;1.80;;
11100;SDS011;5604;50.722;7.078;2023-03-24T06:50:41;2.60;;;1.60;;
11100;SDS011;5604;50.722;7.078;2023-03-24T06:53:12;2.67;;;1.80;;
11100;SDS011;5604;50.722;7.078;2023-03-24T06:55:44;2.57;;;1.43;;
11100;SDS011;5604;50.722;7.078;2023-03-24T06:58:13;2.43;;;1.93;;
11100;SDS011;5604;50.722;7.078;2023-03-24T07:01:16;3.77;;;2.03;;
11100;SDS011;5604;50.722;7.078;2023-03-24T07:03:51;2.67;;;1.50;;
11100;SDS011;5604;50.722;7.078;2023-03-24T07:06:30;3.50;;;1.87;;
11100;SDS011;5604;50.722;7.078;2023-03-24T07:09:16;2.43;;;1.60;;
11100;SDS011;5604;50.722;7.078;2023-03-24T07:11:53;7.20;;;1.97;;
11100;SDS011;5604;50.722;7.078;2023-03-24T07:14:26;3.00;;;2.00;;
11100;SDS011;5604;50.722;7.078;2023-03-24T07:16:55;5.17;;;2.17;;
11100;SDS011;5604;50.722;7.078;2023-03-24T07:19:24;3.40;;;2.00;;
11100;SDS011;5604;50.722;7.078;2023-03-24T07:22:10;5.00;;;1.77;;
11100;SDS011;5604;50.722;7.078;2023-03-24T07:25:02;3.63;;;1.70;;
11100;SDS011;5604;50.722;7.078;2023-03-24T07:27:47;4.50;;;1.97;;
11100;SDS011;5604;50.722;7.078;2023-03-24T07:30:15;4.30;;;2.20;;
11100;SDS011;5604;50.722;7.078;2023-03-24T07:32:54;5.97;;;2.10;;
11100;SDS011;5604;50.722;7.078;2023-03-24T07:35:23;4.30;;;2.00;;
11100;SDS011;5604;50.722;7.078;2023-03-24T07:37:56;4.53;;;1.93;;
11100;SDS011;5604;50.722;7.078;2023-03-24T07:40:26;6.13;;;2.63;;
11100;SDS011;5604;50.722;7.078;2023-03-24T07:42:58;5.90;;;2.03;;
11100;SDS011;5604;50.722;7.078;2023-03-24T07:45:45;6.30;;;2.17;;
11100;SDS011;5604;50.722;7.078;2023-03-24T07:48:14;5.13;;;2.30;;
11100;SDS011;5604;50.722;7.078;2023-03-24T07:50:44;3.73;;;2.00;;
11100;SDS011;5604;50.722;7.078;2023-03-24T07:53:33;4.83;;;2.30;;
11100;SDS011;5604;50.722;7.078;2023-03-24T07:56:04;3.27;;;2.20;;
11100;SDS011;5604;50.722;7.078;2023-03-24T07:58:36;5.23;;;2.50;;
11100;SDS011;5604;50.722;7.078;2023-03-24T08:01:26;6.37;;;2.43;;
11100;SDS011;5604;50.722;7.078;2023-03-24T08:04:00;6.93;;;2.50;;
11100;SDS011;5604;50.722;7.078;2023-03-24T08:06:51;4.27;;;2.40;;
11100;SDS011;5604;50.722;7.078;2023-03-24T08:09:19;7.23;;;2.37;;
11100;SDS011;5604;50.722;7.078;2023-03-24T08:11:53;5.90;;;2.30;;
11100;SDS011;5604;50.722;7.078;2023-03-24T08:14:32;5.47;;;2.17;;
11100;SDS011;5604;50.722;7.078;2023-03-24T08:17:03;7.40;;;2.77;;
11100;SDS011;5604;50.722;7.078;2023-03-24T08:19:32;3.60;;;2.13;;
11100;SDS011;5604;50.722;7.078;2023-03-24T08:22:13;9.77;;;2.23;;
11100;SDS011;5604;50.722;7.078;2023-03-24T08:24:45;6.37;;;2.23;;
11100;SDS011;5604;50.722;7.078;2023-03-24T08:27:15;4.90;;;2.00;;
11100;SDS011;5604;50.722;7.078;2023-03-24T08:29:45;6.10;;;2.30;;
11100;SDS011;5604;50.722;7.078;2023-03-24T08:32:19;7.47;;;2.63;;
11100;SDS011;5604;50.722;7.078;2023-03-24T08:34:47;8.97;;;2.40;;
11100;SDS011;5604;50.722;7.078;2023-03-24T08:37:15;7.10;;;2.23;;
11100;SDS011;5604;50.722;7.078;2023-03-24T08:39:44;9.10;;;2.10;;
11100;SDS011;5604;50.722;7.078;2023-03-24T08:42:15;6.70;;;2.20;;
11100;SDS011;5604;50.722;7.078;2023-03-24T08:44:45;6.03;;;2.37;;
11100;SDS011;5604;50.722;7.078;2023-03-24T08:47:15;11.27;;;3.07;;
11100;SDS011;5604;50.722;7.078;2023-03-24T08:49:47;6.93;;;1.80;;
11100;SDS011;5604;50.722;7.078;2023-03-24T08:52:16;7.73;;;2.57;;
11100;SDS011;5604;50.722;7.078;2023-03-24T08:54:46;6.90;;;2.10;;
11100;SDS011;5604;50.722;7.078;2023-03-24T08:57:16;6.60;;;2.23;;
11100;SDS011;5604;50.722;7.078;2023-03-24T08:59:44;6.97;;;2.43;;
11100;SDS011;5604;50.722;7.078;2023-03-24T09:02:16;6.27;;;2.23;;
11100;SDS011;5604;50.722;7.078;2023-03-24T09:04:47;6.73;;;2.23;;
11100;SDS011;5604;50.722;7.078;2023-03-24T09:07:21;5.53;;;2.00;;
11100;SDS011;5604;50.722;7.078;2023-03-24T09:09:49;4.87;;;1.87;;
11100;SDS011;5604;50.722;7.078;2023-03-24T09:12:18;6.30;;;1.93;;
11100;SDS011;5604;50.722;7.078;2023-03-24T09:14:47;6.37;;;2.33;;
11100;SDS011;5604;50.722;7.078;2023-03-24T09:17:15;4.07;;;1.67;;
11100;SDS011;5604;50.722;7.078;2023-03-24T09:19:43;6.00;;;2.00;;
11100;SDS011;5604;50.722;7.078;2023-03-24T09:22:12;5.27;;;1.97;;
11100;SDS011;5604;50.722;7.078;2023-03-24T09:24:40;3.63;;;1.60;;
11100;SDS011;5604;50.722;7.078;2023-03-24T09:27:09;4.37;;;2.00;;
11100;SDS011;5604;50.722;7.078;2023-03-24T09:29:39;6.67;;;2.00;;
11100;SDS011;5604;50.722;7.078;2023-03-24T09:32:07;3.37;;;1.60;;
11100;SDS011;5604;50.722;7.078;2023-03-24T09:34:35;5.27;;;1.47;;
11100;SDS011;5604;50.722;7.078;2023-03-24T09:37:04;3.57;;;1.77;;
11100;SDS011;5604;50.722;7.078;2023-03-24T09:39:34;4.07;;;1.60;;
11100;SDS011;5604;50.722;7.078;2023-03-24T09:42:03;4.30;;;1.60;;
11100;SDS011;5604;50.722;7.078;2023-03-24T09:44:33;7.57;;;1.90;;
11100;SDS011;5604;50.722;7.078;2023-03-24T09:47:05;5.50;;;2.33;;
11100;SDS011;5604;50.722;7.078;2023-03-24T09:49:41;5.53;;;1.80;;
11100;SDS011;5604;50.722;7.078;2023-03-24T09:52:11;7.60;;;1.93;;
11100;SDS011;5604;50.722;7.078;2023-03-24T09:54:41;5.40;;;2.10;;
11100;SDS011;5604;50.722;7.078;2023-03-24T09:57:14;6.67;;;2.20;;
11100;SDS011;5604;50.722;7.078;2023-03-24T09:59:44;4.77;;;1.73;;
11100;SDS011;5604;50.722;7.078;2023-03-24T10:02:14;6.63;;;2.10;;
11100;SDS011;5604;50.722;7.078;2023-03-24T10:04:44;3.20;;;1.60;;
11100;SDS011;5604;50.722;7.078;2023-03-24T10:07:15;8.97;;;1.80;;
11100;SDS011;5604;50.722;7.078;2023-03-24T10:09:50;6.13;;;2.00;;
11100;SDS011;5604;50.722;7.078;2023-03-24T10:12:26;4.60;;;1.63;;
11100;SDS011;5604;50.722;7.078;2023-03-24T10:15:08;5.67;;;2.17;;
11100;SDS011;5604;50.722;7.078;2023-03-24T10:18:07;5.63;;;1.70;;
11100;SDS011;5604;50.722;7.078;2023-03-24T10:20:43;4.87;;;1.40;;
11100;SDS011;5604;50.722;7.078;2023-03-24T10:23:19;5.43;;;1.83;;
11100;SDS011;5604;50.722;7.078;2023-03-24T10:25:53;7.47;;;2.00;;
11100;SDS011;5604;50.722;7.078;2023-03-24T10:28:29;4.80;;;1.90;;
11100;SDS011;5604;50.722;7.078;2023-03-24T10:31:01;6.63;;;1.87;;
11100;SDS011;5604;50.722;7.078;2023-03-24T10:33:33;2.90;;;1.50;;
11100;SDS011;5604;50.722;7.078;2023-03-24T10:36:06;4.03;;;2.03;;
11100;SDS011;5604;50.722;7.078;2023-03-24T10:38:36;5.17;;;1.90;;
11100;SDS011;5604;50.722;7.078;2023-03-24T10:41:04;6.57;;;2.07;;
11100;SDS011;5604;50.722;7.078;2023-03-24T10:43:33;5.30;;;1.77;;
11100;SDS011;5604;50.722;7.078;2023-03-24T10:46:01;6.73;;;1.60;;
11100;SDS011;5604;50.722;7.078;2023-03-24T10:48:35;4.87;;;1.77;;
11100;SDS011;5604;50.722;7.078;2023-03-24T10:51:13;6.50;;;1.73;;
11100;SDS011;5604;50.722;7.078;2023-03-24T10:53:43;4.27;;;1.80;;
11100;SDS011;5604;50.722;7.078;2023-03-24T10:56:17;4.53;;;1.30;;
11100;SDS011;5604;50.722;7.078;2023-03-24T10:59:05;3.57;;;1.60;;
11100;SDS011;5604;50.722;7.078;2023-03-24T11:01:46;3.07;;;1.50;;
11100;SDS011;5604;50.722;7.078;2023-03-24T11:04:16;3.83;;;1.63;;
11100;SDS011;5604;50.722;7.078;2023-03-24T11:06:53;4.47;;;1.70;;
11100;SDS011;5604;50.722;7.078;2023-03-24T11:09:26;5.00;;;1.40;;
11100;SDS011;5604;50.722;7.078;2023-03-24T11:11:55;3.77;;;1.90;;
11100;SDS011;5604;50.722;7.078;2023-03-24T11:14:25;5.70;;;1.93;;
11100;SDS011;5604;50.722;7.078;2023-03-24T11:17:00;6.00;;;2.23;;
11100;SDS011;5604;50.722;7.078;2023-03-24T11:19:31;5.93;;;1.67;;
11100;SDS011;5604;50.722;7.078;2023-03-24T11:22:03;5.57;;;1.63;;
11100;SDS011;5604;50.722;7.078;2023-03-24T11:24:35;4.63;;;1.83;;
11100;SDS011;5604;50.722;7.078;2023-03-24T11:27:04;7.30;;;2.00;;
11100;SDS011;5604;50.722;7.078;2023-03-24T11:29:33;2.53;;;1.33;;
11100;SDS011;5604;50.722;7.078;2023-03-24T11:32:09;4.30;;;1.33;;
11100;SDS011;5604;50.722;7.078;2023-03-24T11:34:45;4.33;;;1.60;;
11100;SDS011;5604;50.722;7.078;2023-03-24T11:37:15;4.07;;;1.50;;
11100;SDS011;5604;50.722;7.078;2023-03-24T11:39:45;2.90;;;1.40;;
11100;SDS011;5604;50.722;7.078;2023-03-24T11:42:37;2.57;;;1.20;;
11100;SDS011;5604;50.722;7.078;2023-03-24T11:45:27;3.23;;;1.40;;
11100;SDS011;5604;50.722;7.078;2023-03-24T11:47:58;3.03;;;1.37;;
11100;SDS011;5604;50.722;7.078;2023-03-24T11:50:28;3.63;;;1.50;;
11100;SDS011;5604;50.722;7.078;2023-03-24T11:52:59;3.70;;;1.40;;
11100;SDS011;5604;50.722;7.078;2023-03-24T11:55:33;4.57;;;1.53;;
11100;SDS011;5604;50.722;7.078;2023-03-24T11:58:03;4.23;;;1.53;;
11100;SDS011;5604;50.722;7.078;2023-03-24T12:00:37;2.93;;;1.40;;
11100;SDS011;5604;50.722;7.078;2023-03-24T12:06:17;4.73;;;1.60;;
11100;SDS011;5604;50.722;7.078;2023-03-24T12:08:54;5.17;;;1.50;;
11100;SDS011;5604;50.722;7.078;2023-03-24T12:11:29;3.27;;;1.50;;
11100;SDS011;5604;50.722;7.078;2023-03-24T12:14:00;2.60;;;1.37;;
11100;SDS011;5604;50.722;7.078;2023-03-24T12:16:36;3.37;;;1.40;;
11100;SDS011;5604;50.722;7.078;2023-03-24T12:19:23;4.23;;;1.40;;
11100;SDS011;5604;50.722;7.078;2023-03-24T12:22:09;1.70;;;1.13;;
11100;SDS011;5604;50.722;7.078;2023-03-24T12:24:46;3.53;;;1.13;;
11100;SDS011;5604;50.722;7.078;2023-03-24T12:27:24;4.03;;;1.27;;
11100;SDS011;5604;50.722;7.078;2023-03-24T12:29:59;3.27;;;1.40;;
11100;SDS011;5604;50.722;7.078;2023-03-24T12:32:30;4.23;;;1.57;;
11100;SDS011;5604;50.722;7.078;2023-03-24T12:35:07;4.57;;;1.43;;
11100;SDS011;5604;50.722;7.078;2023-03-24T12:37:45;6.43;;;1.67;;
11100;SDS011;5604;50.722;7.078;2023-03-24T12:40:25;4.10;;;1.70;;
11100;SDS011;5604;50.722;7.078;2023-03-24T12:43:05;2.03;;;1.40;;
11100;SDS011;5604;50.722;7.078;2023-03-24T12:45:39;3.50;;;1.50;;
11100;SDS011;5604;50.722;7.078;2023-03-24T12:48:12;3.63;;;1.37;;
11100;SDS011;5604;50.722;7.078;2023-03-24T12:50:51;3.17;;;1.30;;
11100;SDS011;5604;50.722;7.078;2023-03-24T12:53:29;2.47;;;1.20;;
11100;SDS011;5604;50.722;7.078;2023-03-24T12:56:13;3.03;;;1.20;;
11100;SDS011;5604;50.722;7.078;2023-03-24T12:58:44;3.77;;;1.60;;
11100;SDS011;5604;50.722;7.078;2023-03-24T13:01:18;4.67;;;1.73;;
11100;SDS011;5604;50.722;7.078;2023-03-24T13:03:51;3.40;;;1.53;;
11100;SDS011;5604;50.722;7.078;2023-03-24T13:06:25;5.87;;;1.50;;
11100;SDS011;5604;50.722;7.078;2023-03-24T13:09:01;3.80;;;1.40;;
11100;SDS011;5604;50.722;7.078;2023-03-24T13:11:37;3.73;;;1.30;;
11100;SDS011;5604;50.722;7.078;2023-03-24T13:14:11;2.90;;;1.30;;
11100;SDS011;5604;50.722;7.078;2023-03-24T13:16:45;4.73;;;1.67;;
11100;SDS011;5604;50.722;7.078;2023-03-24T13:19:15;4.43;;;1.40;;
11100;SDS011;5604;50.722;7.078;2023-03-24T13:21:45;3.33;;;1.90;;
11100;SDS011;5604;50.722;7.078;2023-03-24T13:24:16;3.40;;;1.40;;
11100;SDS011;5604;50.722;7.078;2023-03-24T13:26:50;3.50;;;1.43;;
11100;SDS011;5604;50.722;7.078;2023-03-24T13:29:28;2.07;;;1.23;;
11100;SDS011;5604;50.722;7.078;2023-03-24T13:32:16;4.53;;;1.80;;
11100;SDS011;5604;50.722;7.078;2023-03-24T13:34:52;3.77;;;1.23;;
11100;SDS011;5604;50.722;7.078;2023-03-24T13:37:22;3.20;;;1.30;;
11100;SDS011;5604;50.722;7.078;2023-03-24T13:39:54;4.97;;;1.40;;
11100;SDS011;5604;50.722;7.078;2023-03-24T13:42:27;3.93;;;1.37;;
11100;SDS011;5604;50.722;7.078;2023-03-24T13:44:58;7.20;;;1.30;;
11100;SDS011;5604;50.722;7.078;2023-03-24T13:50:16;4.27;;;1.40;;
11100;SDS011;5604;50.722;7.078;2023-03-24T13:52:45;5.53;;;1.50;;
11100;SDS011;5604;50.722;7.078;2023-03-24T13:55:19;5.00;;;1.67;;
11100;SDS011;5604;50.722;7.078;2023-03-24T13:57:51;4.20;;;1.50;;
11100;SDS011;5604;50.722;7.078;2023-03-24T14:00:23;3.97;;;1.73;;
11100;SDS011;5604;50.722;7.078;2023-03-24T14:02:52;3.03;;;1.60;;
11100;SDS011;5604;50.722;7.078;2023-03-24T14:05:41;2.23;;;1.30;;
11100;SDS011;5604;50.722;7.078;2023-03-24T14:08:33;4.57;;;1.40;;
11100;SDS011;5604;50.722;7.078;2023-03-24T14:11:10;3.93;;;1.40;;
11100;SDS011;5604;50.722;7.078;2023-03-24T14:14:16;2.83;;;1.40;;
11100;SDS011;5604;50.722;7.078;2023-03-24T14:16:51;3.63;;;1.40;;
11100;SDS011;5604;50.722;7.078;2023-03-24T14:19:34;4.10;;;1.60;;
11100;SDS011;5604;50.722;7.078;2023-03-24T14:22:09;3.67;;;1.60;;
11100;SDS011;5604;50.722;7.078;2023-03-24T14:24:40;3.30;;;1.40;;
11100;SDS011;5604;50.722;7.078;2023-03-24T14:27:21;3.33;;;1.90;;
11100;SDS011;5604;50.722;7.078;2023-03-24T14:29:58;4.23;;;1.60;;
11100;SDS011;5604;50.722;7.078;2023-03-24T14:32:29;3.57;;;1.53;;
11100;SDS011;5604;50.722;7.078;2023-03-24T14:34:58;3.07;;;1.40;;
11100;SDS011;5604;50.722;7.078;2023-03-24T14:37:26;2.63;;;1.33;;
11100;SDS011;5604;50.722;7.078;2023-03-24T14:39:58;3.67;;;1.33;;
11100;SDS011;5604;50.722;7.078;2023-03-24T14:48:32;6.30;;;1.87;;
11100;SDS011;5604;50.722;7.078;2023-03-24T14:51:11;3.07;;;1.33;;
11100;SDS011;5604;50.722;7.078;2023-03-24T14:53:46;3.90;;;1.53;;
11100;SDS011;5604;50.722;7.078;2023-03-24T14:56:16;5.47;;;1.80;;
11100;SDS011;5604;50.722;7.078;2023-03-24T14:58:47;3.70;;;1.63;;
11100;SDS011;5604;50.722;7.078;2023-03-24T15:01:19;2.43;;;1.37;;
11100;SDS011;5604;50.722;7.078;2023-03-24T15:03:48;4.13;;;1.83;;
11100;SDS011;5604;50.722;7.078;2023-03-24T15:06:22;5.10;;;1.37;;
11100;SDS011;5604;50.722;7.078;2023-03-24T15:08:51;4.43;;;1.77;;
11100;SDS011;5604;50.722;7.078;2023-03-24T15:11:22;5.10;;;1.80;;
11100;SDS011;5604;50.722;7.078;2023-03-24T15:13:53;3.10;;;1.47;;
11100;SDS011;5604;50.722;7.078;2023-03-24T15:16:24;4.90;;;1.97;;
11100;SDS011;5604;50.722;7.078;2023-03-24T15:18:54;5.20;;;2.10;;
11100;SDS011;5604;50.722;7.078;2023-03-24T15:21:29;4.43;;;1.70;;
11100;SDS011;5604;50.722;7.078;2023-03-24T15:27:12;11.30;;;2.83;;
11100;SDS011;5604;50.722;7.078;2023-03-24T15:29:44;3.83;;;1.47;;
11100;SDS011;5604;50.722;7.078;2023-03-24T15:32:16;7.23;;;1.23;;
11100;SDS011;5604;50.722;7.078;2023-03-24T15:34:48;4.27;;;1.73;;
11100;SDS011;5604;50.722;7.078;2023-03-24T15:37:21;4.77;;;1.60;;
11100;SDS011;5604;50.722;7.078;2023-03-24T15:39:53;3.90;;;1.30;;
11100;SDS011;5604;50.722;7.078;2023-03-24T15:42:40;2.83;;;1.40;;
11100;SDS011;5604;50.722;7.078;2023-03-24T15:45:22;3.43;;;1.30;;
11100;SDS011;5604;50.722;7.078;2023-03-24T15:47:55;4.07;;;1.60;;
11100;SDS011;5604;50.722;7.078;2023-03-24T15:50:29;4.00;;;1.53;;
11100;SDS011;5604;50.722;7.078;2023-03-24T15:52:59;2.53;;;1.30;;
11100;SDS011;5604;50.722;7.078;2023-03-24T15:55:30;4.07;;;1.30;;
11100;SDS011;5604;50.722;7.078;2023-03-24T15:58:00;3.17;;;1.47;;
11100;SDS011;5604;50.722;7.078;2023-03-24T16:00:42;3.33;;;1.43;;
11100;SDS011;5604;50.722;7.078;2023-03-24T16:03:12;3.27;;;1.50;;
11100;SDS011;5604;50.722;7.078;2023-03-24T16:05:47;4.73;;;1.67;;
11100;SDS011;5604;50.722;7.078;2023-03-24T16:08:25;3.13;;;1.40;;
11100;SDS011;5604;50.722;7.078;2023-03-24T16:10:55;4.43;;;1.53;;
11100;SDS011;5604;50.722;7.078;2023-03-24T16:13:27;5.50;;;1.70;;